createdAt,value
2022-08-22T00:02:45.527Z,97636.50
2022-08-22T00:02:58.997Z,97567.16
2022-08-22T00:06:42.478Z,97552.84
2022-08-22T00:10:03.587Z,97582.66
2022-08-22T00:13:19.916Z,97564.50
2022-08-22T00:16:41.459Z,97548.25
2022-08-22T00:20:07.998Z,97555.97
2022-08-22T00:23:39.062Z,97557.13
2022-08-22T00:26:54.930Z,97553.41
2022-08-22T00:30:12.887Z,97557.16
2022-08-22T00:33:37.055Z,97554.56
2022-08-22T00:36:51.499Z,97560.06
2022-08-22T00:40:22.394Z,97553.41
2022-08-22T00:44:40.837Z,97550.59
2022-08-22T00:48:06.204Z,97543.13
2022-08-22T00:52:03.530Z,97547.91
2022-08-22T00:55:39.560Z,97552.44
2022-08-22T00:59:26.448Z,97552.81
2022-08-22T01:02:52.553Z,97553.34
2022-08-22T01:06:25.128Z,97549.75
2022-08-22T01:09:50.001Z,97553.28
2022-08-22T01:13:23.446Z,97559.09
2022-08-22T01:17:08.284Z,97554.63
2022-08-22T01:21:13.655Z,97557.66
2022-08-22T01:25:25.892Z,97547.03
2022-08-22T01:29:33.532Z,97542.72
2022-08-22T01:33:37.738Z,97540.53
2022-08-22T01:37:20.051Z,97534.09
2022-08-22T01:41:11.972Z,97543.69
2022-08-22T01:44:49.878Z,97536.09
2022-08-22T01:48:09.502Z,97540.91
2022-08-22T01:51:25.971Z,97541.72
2022-08-22T01:54:52.418Z,97534.34
2022-08-22T01:58:03.827Z,97540.56
2022-08-22T02:01:35.794Z,97551.66
2022-08-22T02:04:56.050Z,97546.16
2022-08-22T02:08:09.021Z,97550.03
2022-08-22T02:11:52.066Z,97540.56
2022-08-22T02:15:24.456Z,97549.56
2022-08-22T02:18:50.330Z,97554.09
2022-08-22T02:22:10.198Z,97544.69
2022-08-22T02:25:27.147Z,97554.94
2022-08-22T02:28:57.239Z,97545.84
2022-08-22T02:32:18.512Z,97551.47
2022-08-22T02:35:35.747Z,97549.25
2022-08-22T02:39:00.503Z,97543.03
2022-08-22T02:42:26.176Z,97549.09
2022-08-22T02:45:47.110Z,97547.84
2022-08-22T02:49:10.348Z,97555.06
2022-08-22T02:52:24.469Z,97550.88
2022-08-22T02:55:46.684Z,97536.38
2022-08-22T02:59:00.108Z,97540.34
2022-08-22T03:02:39.577Z,97540.34
2022-08-22T03:06:01.276Z,97531.47
2022-08-22T03:09:27.780Z,97531.59
2022-08-22T03:12:45.838Z,97535.44
2022-08-22T03:16:02.544Z,97544.09
2022-08-22T03:19:25.409Z,97540.38
2022-08-22T03:22:47.532Z,97535.31
2022-08-22T03:26:07.655Z,97529.25
2022-08-22T03:29:23.420Z,97522.97
2022-08-22T03:33:00.696Z,97530.44
2022-08-22T03:36:28.467Z,97537.53
2022-08-22T03:40:00.614Z,97536.75
2022-08-22T03:43:42.190Z,97542.47
2022-08-22T03:47:41.231Z,97538.97
2022-08-22T03:51:36.044Z,97529.16
2022-08-22T03:55:24.084Z,97526.47
2022-08-22T03:59:36.953Z,97528.09
2022-08-22T04:03:40.447Z,97539.38
2022-08-22T04:07:39.399Z,97539.69
2022-08-22T04:11:22.187Z,97540.16
2022-08-22T04:15:11.153Z,97536.19
2022-08-22T04:19:12.483Z,97546.56
2022-08-22T04:22:47.534Z,97548.66
2022-08-22T04:26:12.290Z,97558.38
2022-08-22T04:29:35.954Z,97562.94
2022-08-22T04:32:52.105Z,97557.28
2022-08-22T04:36:08.370Z,97561.97
2022-08-22T04:39:29.324Z,97565.25
2022-08-22T04:42:45.263Z,97559.88
2022-08-22T04:46:08.428Z,97570.53
2022-08-22T04:49:29.149Z,97564.78
2022-08-22T04:52:56.518Z,97571.81
2022-08-22T04:56:28.933Z,97582.22
2022-08-22T04:59:42.587Z,97587.94
2022-08-22T05:02:59.450Z,97584.53
2022-08-22T05:06:11.179Z,97584.75
2022-08-22T05:09:25.649Z,97586.41
2022-08-22T05:12:39.906Z,97589.91
2022-08-22T05:15:57.946Z,97602.06
2022-08-22T05:19:16.441Z,97602.19
2022-08-22T05:22:31.698Z,97603.22
2022-08-22T05:25:44.309Z,97615.28
2022-08-22T05:28:56.977Z,97612.59
2022-08-22T05:32:14.813Z,97617.16
2022-08-22T05:35:37.072Z,97608.59
2022-08-22T05:38:54.178Z,97611.78
2022-08-22T05:42:05.309Z,97615.97
2022-08-22T05:45:14.801Z,97621.22
2022-08-22T05:48:36.034Z,97619.13
2022-08-22T05:51:57.718Z,97625.31
2022-08-22T05:55:24.460Z,97622.72
2022-08-22T05:58:57.193Z,97628.66
2022-08-22T06:02:15.007Z,97628.66
2022-08-22T06:05:31.181Z,97622.47
2022-08-22T06:08:44.828Z,97623.03
2022-08-22T06:12:02.373Z,97628.91
2022-08-22T06:15:24.235Z,97629.69
2022-08-22T06:18:34.553Z,97629.53
2022-08-22T06:21:45.235Z,97630.44
2022-08-22T06:24:56.827Z,97632.22
2022-08-22T06:28:10.365Z,97631.84
2022-08-22T06:31:25.282Z,97636.34
2022-08-22T06:34:40.823Z,97642.53
2022-08-22T06:37:53.536Z,97643.03
2022-08-22T06:41:07.077Z,97647.03
2022-08-22T06:44:18.865Z,97644.00
2022-08-22T06:47:31.750Z,97645.03
2022-08-22T06:50:42.933Z,97648.31
2022-08-22T06:54:05.319Z,97649.09
2022-08-22T06:57:34.755Z,97652.09
2022-08-22T07:00:58.861Z,97657.09
2022-08-22T07:04:14.725Z,97656.88
2022-08-22T07:07:27.089Z,97658.66
2022-08-22T07:10:35.863Z,97653.75
2022-08-22T07:13:53.125Z,97645.81
2022-08-22T07:17:05.755Z,97642.88
2022-08-22T07:20:28.169Z,97642.19
2022-08-22T07:23:41.247Z,97635.84
2022-08-22T07:27:13.459Z,97629.97
2022-08-22T07:30:28.092Z,97637.38
2022-08-22T07:33:56.361Z,97645.69
2022-08-22T07:37:09.797Z,97641.78
2022-08-22T07:40:28.625Z,97641.38
2022-08-22T07:43:48.037Z,97644.44
2022-08-22T07:47:04.282Z,97643.91
2022-08-22T07:50:22.689Z,97651.19
2022-08-22T07:53:42.582Z,97658.63
2022-08-22T07:56:59.854Z,97661.50
2022-08-22T08:00:18.548Z,97658.34
2022-08-22T08:03:30.098Z,97654.88
2022-08-22T08:06:37.141Z,97655.50
2022-08-22T08:09:53.117Z,97659.06
2022-08-22T08:13:12.730Z,97653.06
2022-08-22T08:16:30.765Z,97663.94
2022-08-22T08:19:43.233Z,97660.59
2022-08-22T08:22:58.200Z,97663.78
2022-08-22T08:26:13.377Z,97657.97
2022-08-22T08:29:19.109Z,97662.31
2022-08-22T08:32:37.539Z,97669.59
2022-08-22T08:36:03.234Z,97669.31
2022-08-22T08:39:24.343Z,97659.16
2022-08-22T08:43:20.254Z,97667.38
2022-08-22T08:47:21.929Z,97659.56
2022-08-22T08:50:57.637Z,97644.56
2022-08-22T08:54:50.393Z,97638.81
2022-08-22T08:58:24.366Z,97633.78
2022-08-22T09:02:23.506Z,97642.44
2022-08-22T09:06:09.537Z,97651.81
2022-08-22T09:09:52.496Z,97661.88
2022-08-22T09:13:40.904Z,97657.66
2022-08-22T09:17:22.872Z,97672.50
2022-08-22T09:21:27.954Z,97665.84
2022-08-22T09:25:19.623Z,97668.03
2022-08-22T09:28:42.669Z,97679.75
2022-08-22T09:32:15.012Z,97663.34
2022-08-22T09:35:46.758Z,97665.72
2022-08-22T09:39:08.931Z,97668.28
2022-08-22T09:42:38.661Z,97672.97
2022-08-22T09:46:18.787Z,97672.03
2022-08-22T09:49:49.632Z,97668.94
2022-08-22T09:53:19.607Z,97678.31
2022-08-22T09:56:45.476Z,97669.25
2022-08-22T10:00:16.582Z,97675.00
2022-08-22T10:04:19.440Z,97673.50
2022-08-22T10:08:05.178Z,97678.53
2022-08-22T10:11:30.900Z,97670.91
2022-08-22T10:15:06.816Z,97678.38
2022-08-22T10:18:35.091Z,97681.47
2022-08-22T10:22:19.096Z,97685.03
2022-08-22T10:25:42.136Z,97683.38
2022-08-22T10:29:00.420Z,97690.50
2022-08-22T10:32:31.872Z,97694.00
2022-08-22T10:35:50.992Z,97695.66
2022-08-22T10:39:09.469Z,97698.94
2022-08-22T10:42:35.544Z,97698.03
2022-08-22T10:45:50.546Z,97707.69
2022-08-22T10:49:05.691Z,97699.38
2022-08-22T10:52:26.171Z,97704.88
2022-08-22T10:55:33.358Z,97696.25
2022-08-22T10:58:51.479Z,97701.50
2022-08-22T11:02:42.194Z,97701.00
2022-08-22T11:05:53.827Z,97695.81
2022-08-22T11:09:32.158Z,97696.03
2022-08-22T11:13:03.345Z,97688.56
2022-08-22T11:16:42.857Z,97700.59
2022-08-22T11:20:28.293Z,97699.78
2022-08-22T11:23:52.444Z,97689.78
2022-08-22T11:27:13.026Z,97696.75
2022-08-22T11:30:43.902Z,97693.34
2022-08-22T11:34:02.319Z,97686.75
2022-08-22T11:37:42.294Z,97685.28
2022-08-22T11:41:05.758Z,97697.09
2022-08-22T11:44:22.252Z,97690.56
2022-08-22T11:47:39.862Z,97698.28
2022-08-22T11:51:13.600Z,97700.44
2022-08-22T11:54:51.881Z,97692.84
2022-08-22T11:58:29.472Z,97691.53
2022-08-22T12:01:50.594Z,97680.34
2022-08-22T12:05:07.359Z,97682.75
2022-08-22T12:08:52.437Z,97685.13
2022-08-22T12:12:33.270Z,97683.59
2022-08-22T12:15:56.948Z,97687.28
2022-08-22T12:19:22.966Z,97674.75
2022-08-22T12:23:19.271Z,97677.97
2022-08-22T12:26:43.986Z,97675.19
2022-08-22T12:30:13.939Z,97677.63
2022-08-22T12:33:57.430Z,97668.03
2022-08-22T12:37:21.570Z,97663.19
2022-08-22T12:40:52.485Z,97661.13
2022-08-22T12:44:21.323Z,97659.72
2022-08-22T12:47:58.547Z,97659.09
2022-08-22T12:51:31.969Z,97670.03
2022-08-22T12:55:14.908Z,97666.41
2022-08-22T12:58:44.512Z,97661.16
2022-08-22T13:02:03.883Z,97659.63
2022-08-22T13:05:24.752Z,97667.53
2022-08-22T13:08:45.970Z,97672.50
2022-08-22T13:12:02.398Z,97670.03
2022-08-22T13:15:29.629Z,97674.00
2022-08-22T13:18:53.584Z,97679.22
2022-08-22T13:22:13.598Z,97679.59
2022-08-22T13:25:29.814Z,97671.00
2022-08-22T13:28:45.138Z,97682.06
2022-08-22T13:32:02.334Z,97677.84
2022-08-22T13:35:14.002Z,97681.88
2022-08-22T13:38:29.894Z,97679.22
2022-08-22T13:41:47.998Z,97678.38
2022-08-22T13:45:02.507Z,97674.84
2022-08-22T13:48:17.039Z,97677.50
2022-08-22T13:51:34.766Z,97672.38
2022-08-22T13:54:59.847Z,97674.34
2022-08-22T13:58:23.295Z,97662.13
2022-08-22T14:01:53.020Z,97660.13
2022-08-22T14:05:11.271Z,97654.75
2022-08-22T14:08:25.793Z,97667.91
2022-08-22T14:11:46.574Z,97668.09
2022-08-22T14:15:01.768Z,97658.97
2022-08-22T14:18:30.290Z,97664.28
2022-08-22T14:21:46.047Z,97660.38
2022-08-22T14:24:59.377Z,97666.75
2022-08-22T14:28:29.289Z,97654.25
2022-08-22T14:31:38.990Z,97655.84
2022-08-22T14:34:51.770Z,97659.13
2022-08-22T14:38:30.269Z,97655.41
2022-08-22T14:41:55.739Z,97656.78
2022-08-22T14:45:17.539Z,97660.13
2022-08-22T14:48:32.669Z,97659.75
2022-08-22T14:51:41.800Z,97662.72
2022-08-22T14:54:47.387Z,97663.78
2022-08-22T14:58:03.508Z,97661.03
2022-08-22T15:01:21.856Z,97666.59
2022-08-22T15:04:40.012Z,97658.44
2022-08-22T15:07:54.906Z,97652.50
2022-08-22T15:11:26.175Z,97643.75
2022-08-22T15:14:52.408Z,97652.22
2022-08-22T15:18:38.999Z,97655.22
2022-08-22T15:21:45.046Z,97664.91
2022-08-22T15:25:05.595Z,97663.19
2022-08-22T15:28:20.820Z,97659.44
2022-08-22T15:31:28.020Z,97662.97
2022-08-22T15:34:47.782Z,97666.78
2022-08-22T15:38:03.451Z,97666.06
2022-08-22T15:41:44.135Z,97663.13
2022-08-22T15:44:50.748Z,97662.41
2022-08-22T15:48:04.366Z,97663.78
2022-08-22T15:51:36.185Z,97656.03
2022-08-22T15:55:22.146Z,97654.50
2022-08-22T15:58:28.471Z,97659.41
2022-08-22T16:01:52.351Z,97660.81
2022-08-22T16:05:27.633Z,97645.75
2022-08-22T16:08:54.371Z,97650.72
2022-08-22T16:12:09.406Z,97666.03
2022-08-22T16:15:56.865Z,97655.88
2022-08-22T16:19:26.130Z,97666.25
2022-08-22T16:23:10.706Z,97666.34
2022-08-22T16:26:22.591Z,97666.53
2022-08-22T16:29:41.808Z,97667.50
2022-08-22T16:33:00.026Z,97670.84
2022-08-22T16:36:47.382Z,97662.44
2022-08-22T16:40:14.470Z,97650.91
2022-08-22T16:43:24.912Z,97649.09
2022-08-22T16:46:48.120Z,97659.09
2022-08-22T16:50:09.484Z,97657.91
2022-08-22T16:54:20.217Z,97657.50
2022-08-22T16:57:37.467Z,97663.59
2022-08-22T17:00:59.065Z,97661.66
2022-08-22T17:04:26.908Z,97669.97
2022-08-22T17:08:01.929Z,97663.91
2022-08-22T17:11:34.479Z,97663.44
2022-08-22T17:14:57.532Z,97659.50
2022-08-22T17:18:33.327Z,97659.78
2022-08-22T17:21:53.652Z,97667.59
2022-08-22T17:25:22.825Z,97672.16
2022-08-22T17:28:44.767Z,97661.69
2022-08-22T17:32:06.084Z,97663.97
2022-08-22T17:35:43.473Z,97667.00
2022-08-22T17:39:10.973Z,97668.72
2022-08-22T17:42:53.933Z,97681.88
2022-08-22T17:46:38.905Z,97687.03
2022-08-22T17:50:00.130Z,97682.41
2022-08-22T17:53:19.201Z,97675.75
2022-08-22T17:56:42.339Z,97691.44
2022-08-22T17:59:58.939Z,97694.91
2022-08-22T18:03:18.082Z,97704.94
2022-08-22T18:06:32.661Z,97718.59
2022-08-22T18:09:52.179Z,97721.56
2022-08-22T18:13:10.123Z,97718.19
2022-08-22T18:16:38.344Z,97718.28
2022-08-22T18:20:04.194Z,97719.75
2022-08-22T18:23:35.635Z,97710.91
2022-08-22T18:27:03.625Z,97712.88
2022-08-22T18:30:22.592Z,97713.19
2022-08-22T18:33:40.641Z,97704.28
2022-08-22T18:37:05.044Z,97692.84
2022-08-22T18:40:28.160Z,97698.50
2022-08-22T18:43:51.367Z,97698.00
2022-08-22T18:47:00.899Z,97699.00
2022-08-22T18:50:33.285Z,97709.78
2022-08-22T18:53:47.715Z,97710.34
2022-08-22T18:57:06.510Z,97707.19
2022-08-22T19:00:28.550Z,97706.69
2022-08-22T19:04:07.389Z,97702.31
2022-08-22T19:07:43.503Z,97701.50
2022-08-22T19:11:22.684Z,97696.38
2022-08-22T19:15:10.981Z,97699.88
2022-08-22T19:18:47.439Z,97695.63
2022-08-22T19:22:24.876Z,97690.41
2022-08-22T19:25:31.252Z,97687.84
2022-08-22T19:28:44.106Z,97688.44
2022-08-22T19:31:53.776Z,97683.28
2022-08-22T19:35:30.844Z,97681.22
2022-08-22T19:39:01.538Z,97677.88
2022-08-22T19:42:33.968Z,97677.22
2022-08-22T19:45:43.941Z,97669.63
2022-08-22T19:48:54.530Z,97673.31
2022-08-22T19:52:34.030Z,97671.94
2022-08-22T19:56:08.071Z,97676.56
2022-08-22T19:59:32.768Z,97678.63
2022-08-22T20:03:07.766Z,97674.31
2022-08-22T20:06:44.031Z,97680.66
2022-08-22T20:10:09.580Z,97681.31
2022-08-22T20:13:26.637Z,97686.22
2022-08-22T20:17:08.744Z,97671.97
2022-08-22T20:20:58.563Z,97667.72
2022-08-22T20:24:08.033Z,97669.13
2022-08-22T20:27:25.777Z,97657.06
2022-08-22T20:30:40.837Z,97666.28
2022-08-22T20:33:50.608Z,97670.75
2022-08-22T20:37:16.150Z,97673.03
2022-08-22T20:40:55.464Z,97675.28
2022-08-22T20:44:21.740Z,97674.53
2022-08-22T20:47:36.211Z,97672.59
2022-08-22T20:50:46.982Z,97666.44
2022-08-22T20:54:10.369Z,97677.63
2022-08-22T20:57:35.772Z,97679.75
2022-08-22T21:01:06.612Z,97682.50
2022-08-22T21:04:49.229Z,97685.19
2022-08-22T21:08:10.389Z,97707.03
2022-08-22T21:11:37.774Z,97709.88
2022-08-22T21:14:49.045Z,97702.84
2022-08-22T21:17:57.370Z,97737.31
2022-08-22T21:21:20.755Z,97724.13
2022-08-22T21:24:26.465Z,97710.09
2022-08-22T21:27:37.011Z,97708.31
2022-08-22T21:30:49.575Z,97689.25
2022-08-22T21:34:00.331Z,97684.31
2022-08-22T21:37:25.830Z,97677.94
2022-08-22T21:40:37.189Z,97687.09
2022-08-22T21:43:48.086Z,97681.16
2022-08-22T21:47:19.091Z,97686.84
2022-08-22T21:50:41.574Z,97678.94
2022-08-22T21:54:17.731Z,97690.88
2022-08-22T21:57:38.082Z,97703.44
2022-08-22T22:00:57.559Z,97714.59
2022-08-22T22:04:09.577Z,97715.22
2022-08-22T22:07:28.565Z,97696.13
2022-08-22T22:10:39.220Z,97690.88
2022-08-22T22:13:49.212Z,97678.97
2022-08-22T22:16:54.843Z,97673.75
2022-08-22T22:20:05.221Z,97657.19
2022-08-22T22:23:14.691Z,97630.25
2022-08-22T22:26:21.608Z,97630.25
2022-08-22T22:29:27.932Z,97634.53
2022-08-22T22:32:40.585Z,97642.13
2022-08-22T22:35:52.464Z,97629.81
2022-08-22T22:39:00.631Z,97619.44
2022-08-22T22:42:10.048Z,97626.94
2022-08-22T22:45:15.612Z,97632.81
2022-08-22T22:48:24.028Z,97611.59
2022-08-22T22:51:30.279Z,97611.25
2022-08-22T22:54:40.400Z,97603.19
2022-08-22T22:57:58.893Z,97602.28
2022-08-22T23:01:13.218Z,97595.28
2022-08-22T23:04:19.933Z,97591.44
2022-08-22T23:07:28.605Z,97587.44
2022-08-22T23:10:43.041Z,97601.00
2022-08-22T23:13:51.149Z,97613.31
2022-08-22T23:16:57.827Z,97625.41
2022-08-22T23:20:19.473Z,97633.50
2022-08-22T23:23:25.607Z,97646.09
2022-08-22T23:26:36.628Z,97652.91
2022-08-22T23:29:45.064Z,97642.38
2022-08-22T23:32:52.117Z,97630.22
2022-08-22T23:35:59.968Z,97631.94
2022-08-22T23:39:12.550Z,97631.13
2022-08-22T23:42:31.381Z,97641.56
2022-08-22T23:45:37.161Z,97633.22
2022-08-22T23:48:49.657Z,97650.88
2022-08-22T23:52:02.634Z,97633.75
2022-08-22T23:55:10.795Z,97635.41
2022-08-22T23:58:29.891Z,97632.56
